createdAt,value
2023-03-28T00:01:03.747Z,99026.34
2023-03-28T00:03:36.580Z,99030.69
2023-03-28T00:06:09.805Z,99039.56
2023-03-28T00:08:40.352Z,99034.06
2023-03-28T00:11:11.490Z,99030.44
2023-03-28T00:13:39.934Z,99039.13
2023-03-28T00:16:09.821Z,99047.03
2023-03-28T00:18:40.340Z,99051.72
2023-03-28T00:21:23.477Z,99041.81
2023-03-28T00:23:53.617Z,99046.28
2023-03-28T00:26:25.077Z,99058.38
2023-03-28T00:28:53.472Z,99059.34
2023-03-28T00:31:22.396Z,99055.94
2023-03-28T00:33:52.006Z,99056.13
2023-03-28T00:36:23.128Z,99047.03
2023-03-28T00:38:52.425Z,99054.47
2023-03-28T00:41:21.998Z,99059.25
2023-03-28T00:43:52.813Z,99048.91
2023-03-28T00:46:26.467Z,99052.94
2023-03-28T00:48:58.791Z,99051.19
2023-03-28T00:51:31.342Z,99042.94
2023-03-28T00:54:03.273Z,99046.34
2023-03-28T00:56:35.646Z,99059.22
2023-03-28T00:59:08.048Z,99063.75
2023-03-28T01:01:36.407Z,99066.97
2023-03-28T01:04:06.889Z,99062.75
2023-03-28T01:06:40.893Z,99039.94
2023-03-28T01:09:10.352Z,99054.72
2023-03-28T01:11:41.318Z,99039.63
2023-03-28T01:14:13.322Z,99044.19
2023-03-28T01:16:43.180Z,99053.22
2023-03-28T01:19:22.095Z,99057.81
2023-03-28T01:22:26.753Z,99063.56
2023-03-28T01:25:38.624Z,99053.19
2023-03-28T01:28:17.869Z,99062.63
2023-03-28T01:31:11.043Z,99062.22
2023-03-28T01:34:24.256Z,99071.09
2023-03-28T01:37:06.354Z,99057.16
2023-03-28T01:39:46.588Z,99066.88
2023-03-28T01:42:23.727Z,99070.88
2023-03-28T01:45:07.043Z,99084.19
2023-03-28T01:47:41.083Z,99084.06
2023-03-28T01:50:18.688Z,99100.78
2023-03-28T01:52:55.081Z,99095.38
2023-03-28T01:55:30.315Z,99108.44
2023-03-28T01:58:04.891Z,99118.56
2023-03-28T02:00:36.454Z,99122.88
2023-03-28T02:03:15.337Z,99117.28
2023-03-28T02:05:46.734Z,99136.75
2023-03-28T02:08:19.194Z,99105.69
2023-03-28T02:10:48.845Z,99133.00
2023-03-28T02:13:21.969Z,99120.56
2023-03-28T02:15:53.653Z,99135.66
2023-03-28T02:18:26.389Z,99127.59
2023-03-28T02:20:58.066Z,99140.66
2023-03-28T02:23:32.202Z,99148.38
2023-03-28T02:26:00.320Z,99143.31
2023-03-28T02:28:29.438Z,99153.88
2023-03-28T02:30:57.540Z,99157.59
2023-03-28T02:33:39.091Z,99168.63
2023-03-28T02:36:32.308Z,99183.50
2023-03-28T02:39:25.485Z,99194.63
2023-03-28T02:42:08.493Z,99183.50
2023-03-28T02:44:54.928Z,99206.31
2023-03-28T02:47:32.436Z,99187.66
2023-03-28T02:50:14.294Z,99206.00
2023-03-28T02:52:54.408Z,99206.75
2023-03-28T02:55:31.978Z,99214.38
2023-03-28T02:58:08.299Z,99209.03
2023-03-28T03:00:37.503Z,99210.41
2023-03-28T03:03:05.790Z,99228.72
2023-03-28T03:05:33.839Z,99219.06
2023-03-28T03:08:01.888Z,99227.38
2023-03-28T03:10:31.395Z,99221.53
2023-03-28T03:12:59.373Z,99214.50
2023-03-28T03:15:31.022Z,99203.41
2023-03-28T03:17:59.360Z,99224.00
2023-03-28T03:20:28.096Z,99223.16
2023-03-28T03:22:56.775Z,99220.50
2023-03-28T03:25:24.738Z,99231.94
2023-03-28T03:27:54.322Z,99243.72
2023-03-28T03:30:22.364Z,99241.75
2023-03-28T03:32:50.369Z,99250.03
2023-03-28T03:35:20.110Z,99245.84
2023-03-28T03:37:48.440Z,99247.75
2023-03-28T03:40:18.155Z,99266.59
2023-03-28T03:42:46.104Z,99262.41
2023-03-28T03:45:15.878Z,99257.13
2023-03-28T03:47:44.290Z,99276.16
2023-03-28T03:50:13.891Z,99270.28
2023-03-28T03:52:42.043Z,99264.69
2023-03-28T03:55:11.647Z,99296.59
2023-03-28T03:57:39.714Z,99307.13
2023-03-28T04:00:11.334Z,99326.03
2023-03-28T04:02:41.398Z,99316.06
2023-03-28T04:05:09.730Z,99324.50
2023-03-28T04:07:38.374Z,99311.63
2023-03-28T04:10:07.516Z,99309.63
2023-03-28T07:07:34.974Z,99570.34
2023-03-28T07:10:02.927Z,99594.03
2023-03-28T07:12:31.459Z,99605.06
2023-03-28T07:14:59.387Z,99605.06
2023-03-28T07:17:27.336Z,99610.31
2023-03-28T07:19:55.266Z,99612.41
2023-03-28T07:22:23.157Z,99608.38
2023-03-28T07:24:52.457Z,99616.50
2023-03-28T07:27:20.596Z,99622.66
2023-03-28T07:29:48.608Z,99615.09
2023-03-28T07:32:17.180Z,99617.59
2023-03-28T07:34:45.117Z,99622.00
2023-03-28T07:37:13.041Z,99621.66
2023-03-28T07:39:43.727Z,99609.31
2023-03-28T07:42:14.833Z,99619.47
2023-03-28T07:44:43.173Z,99626.28
2023-03-28T07:47:11.438Z,99626.00
2023-03-28T07:49:39.633Z,99630.31
2023-03-28T07:52:07.887Z,99642.06
2023-03-28T07:54:35.850Z,99631.81
2023-03-28T07:57:03.921Z,99624.00
2023-03-28T07:59:33.327Z,99623.66
2023-03-28T08:02:01.717Z,99625.31
2023-03-28T08:04:29.629Z,99640.84
2023-03-28T08:06:58.098Z,99647.81
2023-03-28T08:09:26.150Z,99647.50
2023-03-28T08:11:54.135Z,99647.00
2023-03-28T08:14:22.170Z,99651.13
2023-03-28T08:16:52.115Z,99647.16
2023-03-28T08:19:20.009Z,99655.84
2023-03-28T08:21:47.963Z,99639.44
2023-03-28T08:24:25.442Z,99645.00
2023-03-28T08:27:01.738Z,99662.31
2023-03-28T08:29:29.685Z,99663.31
2023-03-28T08:31:59.124Z,99668.22
2023-03-28T08:34:27.191Z,99669.97
2023-03-28T08:36:55.102Z,99666.63
2023-03-28T08:39:23.413Z,99630.28
2023-03-28T08:42:21.833Z,99677.97
2023-03-28T08:45:04.599Z,99645.28
2023-03-28T08:47:37.150Z,99667.03
2023-03-28T08:50:14.606Z,99678.97
2023-03-28T08:52:44.571Z,99678.06
2023-03-28T08:55:25.316Z,99673.97
2023-03-28T08:57:55.558Z,99680.44
2023-03-28T09:00:27.612Z,99680.03
2023-03-28T09:02:57.381Z,99686.28
2023-03-28T09:05:34.676Z,99694.25
2023-03-28T09:08:20.655Z,99687.34
2023-03-28T09:10:53.104Z,99688.56
2023-03-28T09:13:32.446Z,99697.09
2023-03-28T09:16:15.282Z,99698.22
2023-03-28T09:19:07.526Z,99692.72
2023-03-28T09:21:47.249Z,99700.31
2023-03-28T09:24:41.569Z,99704.50
2023-03-28T09:27:20.706Z,99708.75
2023-03-28T09:29:50.395Z,99718.50
2023-03-28T09:32:23.750Z,99700.66
2023-03-28T09:34:53.913Z,99705.72
2023-03-28T09:37:31.987Z,99715.03
2023-03-28T09:40:08.815Z,99720.75
2023-03-28T09:42:46.151Z,99720.03
2023-03-28T09:45:27.180Z,99724.69
2023-03-28T09:47:55.203Z,99727.03
2023-03-28T09:50:26.341Z,99678.69
2023-03-28T09:52:57.275Z,99725.13
2023-03-28T09:55:27.441Z,99736.91
2023-03-28T09:58:03.511Z,99737.13
2023-03-28T10:00:36.934Z,99732.34
2023-03-28T10:03:06.187Z,99734.22
2023-03-28T10:05:38.847Z,99725.31
2023-03-28T10:08:19.853Z,99718.25
2023-03-28T10:10:56.313Z,99734.44
2023-03-28T10:13:24.664Z,99751.75
2023-03-28T10:15:53.678Z,99758.47
2023-03-28T10:18:23.142Z,99771.00
2023-03-28T10:20:52.473Z,99771.00
2023-03-28T10:23:23.395Z,99779.91
2023-03-28T10:25:53.489Z,99776.72
2023-03-28T10:28:29.666Z,99777.97
2023-03-28T10:31:01.057Z,99790.19
2023-03-28T10:33:34.280Z,99782.06
2023-03-28T10:36:06.457Z,99806.22
2023-03-28T10:38:38.461Z,99803.53
2023-03-28T10:41:10.667Z,99809.66
2023-03-28T10:43:40.786Z,99810.81
2023-03-28T10:46:14.260Z,99818.19
2023-03-28T10:48:47.191Z,99795.78
2023-03-28T10:51:22.024Z,99822.66
2023-03-28T10:54:03.674Z,99824.75
2023-03-28T10:56:38.722Z,99820.13
2023-03-28T10:59:24.697Z,99824.41
2023-03-28T11:02:10.573Z,99827.06
2023-03-28T11:04:56.852Z,99834.22
2023-03-28T11:07:32.637Z,99833.22
2023-03-28T11:10:12.250Z,99836.25
2023-03-28T11:12:56.667Z,99845.94
2023-03-28T11:15:30.491Z,99828.50
2023-03-28T11:18:08.307Z,99826.44
2023-03-28T11:20:46.095Z,99842.91
2023-03-28T11:23:38.877Z,99855.84
2023-03-28T11:26:10.542Z,99848.81
2023-03-28T11:28:56.654Z,99849.38
2023-03-28T11:31:30.653Z,99853.50
2023-03-28T11:34:05.108Z,99850.78
2023-03-28T11:36:38.957Z,99836.53
2023-03-28T11:39:18.198Z,99845.41
2023-03-28T11:41:49.633Z,99854.75
2023-03-28T11:44:22.174Z,99845.84
2023-03-28T11:46:54.564Z,99854.75
2023-03-28T11:49:28.487Z,99852.41
2023-03-28T11:52:02.659Z,99855.41
2023-03-28T11:54:37.149Z,99858.34
2023-03-28T11:57:13.054Z,99846.53
2023-03-28T11:59:47.605Z,99824.34
2023-03-28T12:02:28.608Z,99860.47
2023-03-28T12:05:00.565Z,99856.91
2023-03-28T12:07:35.930Z,99858.97
2023-03-28T12:10:18.575Z,99869.19
2023-03-28T12:12:57.112Z,99860.75
2023-03-28T12:15:34.651Z,99876.41
2023-03-28T12:18:07.712Z,99877.00
2023-03-28T12:20:45.267Z,99864.81
2023-03-28T12:23:22.374Z,99879.47
2023-03-28T12:26:04.011Z,99875.47
2023-03-28T12:28:38.913Z,99872.13
2023-03-28T12:31:14.723Z,99874.66
2023-03-28T12:33:54.285Z,99882.06
2023-03-28T12:36:28.572Z,99871.13
2023-03-28T12:39:00.147Z,99888.59
2023-03-28T12:41:32.522Z,99869.09
2023-03-28T12:44:05.075Z,99864.50
2023-03-28T12:46:45.905Z,99873.31
2023-03-28T12:49:19.994Z,99870.22
2023-03-28T12:51:50.165Z,99867.94
2023-03-28T12:54:27.389Z,99877.13
2023-03-28T12:57:11.760Z,99877.06
2023-03-28T12:59:54.238Z,99877.78
2023-03-28T13:02:32.321Z,99892.41
2023-03-28T13:05:12.974Z,99902.13
2023-03-28T13:07:56.685Z,99900.38
2023-03-28T13:10:33.894Z,99894.75
2023-03-28T13:13:14.518Z,99889.16
2023-03-28T13:16:02.238Z,99904.00
2023-03-28T13:18:32.767Z,99899.84
2023-03-28T13:21:04.383Z,99907.22
2023-03-28T13:23:36.836Z,99918.91
2023-03-28T13:26:06.826Z,99914.06
2023-03-28T13:28:43.356Z,99907.28
2023-03-28T13:31:22.481Z,99917.75
2023-03-28T13:33:54.695Z,99913.41
2023-03-28T13:36:26.190Z,99913.44
2023-03-28T13:39:07.244Z,99920.66
2023-03-28T13:41:55.227Z,99920.25
2023-03-28T13:44:33.340Z,99920.97
2023-03-28T13:47:01.497Z,99919.22
2023-03-28T13:49:38.184Z,99920.75
2023-03-28T13:52:11.050Z,99931.34
2023-03-28T13:54:38.990Z,99930.50
2023-03-28T13:57:13.035Z,99938.09
2023-03-28T13:59:54.058Z,99948.34
2023-03-28T14:02:31.381Z,99943.81
2023-03-28T14:05:13.049Z,99932.88
2023-03-28T14:07:41.471Z,99954.88
2023-03-28T14:10:23.889Z,99957.69
2023-03-28T14:12:54.132Z,99958.06
2023-03-28T14:15:25.839Z,99963.47
2023-03-28T14:17:55.825Z,99958.75
2023-03-28T14:20:24.495Z,99964.41
2023-03-28T14:23:00.279Z,99963.44
2023-03-28T14:25:30.741Z,99959.13
2023-03-28T14:28:06.697Z,99985.22
2023-03-28T14:30:42.555Z,99970.41
2023-03-28T14:33:20.580Z,99989.16
2023-03-28T14:35:58.850Z,100008.91
2023-03-28T14:38:33.006Z,99987.91
2023-03-28T14:41:08.751Z,100017.41
2023-03-28T14:43:37.197Z,100011.06
2023-03-28T14:46:09.958Z,100012.22
2023-03-28T14:48:39.336Z,100010.88
2023-03-28T14:51:08.123Z,100027.13
2023-03-28T14:53:39.235Z,100034.91
2023-03-28T14:56:10.585Z,100025.25
2023-03-28T14:58:41.472Z,100030.13
2023-03-28T15:01:21.774Z,99997.91
2023-03-28T15:03:54.792Z,100028.44
2023-03-28T15:06:24.453Z,100047.56
2023-03-28T15:08:54.526Z,100052.25
2023-03-28T15:11:27.845Z,100052.25
2023-03-28T15:14:03.137Z,100066.41
2023-03-28T15:16:37.862Z,100061.75
2023-03-28T15:19:09.210Z,100067.94
2023-03-28T15:21:39.868Z,100086.38
2023-03-28T15:24:12.889Z,100088.41
2023-03-28T15:26:44.798Z,100091.38
2023-03-28T15:29:17.421Z,100101.81
2023-03-28T15:31:47.820Z,100100.81
2023-03-28T15:34:21.712Z,100116.19
2023-03-28T15:36:52.601Z,100120.47
2023-03-28T15:39:25.555Z,100126.41
2023-03-28T15:42:00.103Z,100131.91
2023-03-28T15:44:30.073Z,100129.31
2023-03-28T15:47:02.890Z,100146.56
2023-03-28T15:49:36.621Z,100153.72
2023-03-28T15:52:07.205Z,100156.56
2023-03-28T15:54:40.004Z,100160.53
2023-03-28T15:57:08.456Z,100167.66
2023-03-28T15:59:39.386Z,100183.72
2023-03-28T16:02:30.459Z,100193.00
2023-03-28T16:05:02.810Z,100197.84
2023-03-28T16:07:36.237Z,100211.78
2023-03-28T16:10:04.818Z,100222.13
2023-03-28T16:12:33.388Z,100224.25
2023-03-28T16:15:03.785Z,100229.91
2023-03-28T16:17:33.739Z,100232.94
2023-03-28T16:20:01.690Z,100242.22
2023-03-28T16:22:29.630Z,100242.22
2023-03-28T16:24:57.551Z,100254.84
2023-03-28T16:27:25.525Z,100272.91
2023-03-28T16:29:53.425Z,100247.25
2023-03-28T16:32:23.935Z,100293.88
2023-03-28T16:34:53.275Z,100289.81
2023-03-28T16:37:21.903Z,100306.69
2023-03-28T16:39:49.825Z,100317.75
2023-03-28T16:42:20.895Z,100321.41
2023-03-28T16:44:48.920Z,100330.81
2023-03-28T16:47:16.840Z,100336.22
2023-03-28T16:49:44.774Z,100341.81
2023-03-28T16:52:14.210Z,100330.22
2023-03-28T16:54:42.228Z,100330.94
2023-03-28T16:57:10.332Z,100347.22
2023-03-28T16:59:38.365Z,100350.28
2023-03-28T17:02:06.666Z,100352.13
2023-03-28T17:04:36.029Z,100364.00
2023-03-28T17:07:03.961Z,100367.72
2023-03-28T17:09:34.687Z,100379.47
2023-03-28T17:12:02.628Z,100380.72
2023-03-28T17:14:30.581Z,100392.84
2023-03-28T17:16:58.580Z,100399.50
2023-03-28T17:19:26.661Z,100405.56
2023-03-28T17:21:55.754Z,100419.69
2023-03-28T17:24:23.755Z,100415.63
2023-03-28T17:26:53.079Z,100422.22
2023-03-28T17:29:21.575Z,100421.78
2023-03-28T17:31:49.633Z,100429.09
2023-03-28T17:34:17.858Z,100429.00
2023-03-28T17:36:45.873Z,100435.28
2023-03-28T17:39:13.988Z,100453.78
2023-03-28T17:41:42.581Z,100467.19
2023-03-28T17:44:11.982Z,100491.81
2023-03-28T17:46:40.048Z,100497.34
2023-03-28T17:49:08.244Z,100500.13
2023-03-28T17:51:36.299Z,100501.69
2023-03-28T17:54:06.855Z,100506.56
2023-03-28T17:56:34.894Z,100506.88
2023-03-28T17:59:02.828Z,100522.63
2023-03-28T18:01:32.561Z,100519.44
2023-03-28T18:04:00.638Z,100531.09
2023-03-28T18:06:28.893Z,100490.72
2023-03-28T18:08:56.874Z,100514.66
2023-03-28T18:11:24.839Z,100524.72
2023-03-28T18:13:56.811Z,100515.69
2023-03-28T18:16:25.082Z,100501.25
2023-03-28T18:18:55.347Z,100525.50
2023-03-28T18:21:23.243Z,100522.38
2023-03-28T18:23:51.784Z,100510.31
2023-03-28T18:26:19.948Z,100523.97
2023-03-28T18:28:47.891Z,100518.19
2023-03-28T18:31:19.584Z,100515.94
2023-03-28T18:33:47.587Z,100524.44
2023-03-28T18:36:17.113Z,100530.78
2023-03-28T18:38:46.635Z,100523.66
2023-03-28T18:41:15.433Z,100547.25
2023-03-28T18:43:45.560Z,100547.97
2023-03-28T18:46:15.972Z,100552.59
2023-03-28T18:48:44.893Z,100559.75
2023-03-28T18:51:13.913Z,100569.13
2023-03-28T18:53:43.799Z,100566.41
2023-03-28T18:56:13.678Z,100577.66
2023-03-28T18:58:41.932Z,100593.09
2023-03-28T19:01:11.471Z,100596.00
2023-03-28T19:03:41.780Z,100591.19
2023-03-28T19:06:11.492Z,100615.03
2023-03-28T19:08:40.352Z,100603.06
2023-03-28T19:11:11.877Z,100621.06
2023-03-28T19:13:40.086Z,100618.97
2023-03-28T19:16:10.341Z,100617.16
2023-03-28T19:18:40.234Z,100619.47
2023-03-28T19:21:09.179Z,100623.59
2023-03-28T19:23:38.162Z,100613.88
2023-03-28T19:26:08.251Z,100615.03
2023-03-28T19:28:39.181Z,100627.63
2023-03-28T19:31:09.757Z,100623.72
2023-03-28T19:33:38.583Z,100592.63
2023-03-28T19:36:07.222Z,100598.31
2023-03-28T19:38:37.334Z,100622.16
2023-03-28T19:41:10.677Z,100624.34
2023-03-28T19:43:40.909Z,100623.41
2023-03-28T19:46:12.119Z,100613.72
2023-03-28T19:48:41.381Z,100632.41
2023-03-28T19:51:09.335Z,100622.97
2023-03-28T19:53:37.322Z,100636.59
2023-03-28T19:56:06.766Z,100634.50
2023-03-28T19:58:35.015Z,100636.38
2023-03-28T20:01:04.928Z,100644.44
2023-03-28T20:03:32.889Z,100656.31
2023-03-28T20:06:04.361Z,100655.38
2023-03-28T20:08:34.376Z,100661.94
2023-03-28T20:11:03.212Z,100658.31
2023-03-28T20:13:31.528Z,100673.03
2023-03-28T20:16:03.012Z,100671.25
2023-03-28T20:18:32.867Z,100670.09
2023-03-28T20:21:02.633Z,100673.16
2023-03-28T20:23:32.686Z,100674.94
2023-03-28T20:26:01.717Z,100685.69
2023-03-28T20:28:32.015Z,100678.94
2023-03-28T20:31:00.556Z,100688.22
2023-03-28T20:33:28.801Z,100694.63
2023-03-28T20:35:59.386Z,100688.88
2023-03-28T20:38:27.409Z,100701.31
2023-03-28T20:40:55.384Z,100706.66
2023-03-28T20:43:26.756Z,100705.72
2023-03-28T20:45:56.496Z,100716.06
2023-03-28T20:48:34.448Z,100715.53
2023-03-28T20:51:05.818Z,100705.25
2023-03-28T20:53:34.857Z,100712.31
2023-03-28T20:56:04.698Z,100715.69
2023-03-28T20:58:33.368Z,100707.22
2023-03-28T21:01:04.266Z,100702.94
2023-03-28T21:03:46.805Z,100709.69
2023-03-28T21:06:20.512Z,100715.56
2023-03-28T21:08:50.059Z,100709.38
2023-03-28T21:11:19.796Z,100724.00
2023-03-28T21:13:47.826Z,100729.16
2023-03-28T21:16:17.820Z,100734.34
2023-03-28T21:18:46.829Z,100727.19
2023-03-28T21:21:17.293Z,100729.66
2023-03-28T21:23:46.750Z,100731.69
2023-03-28T21:26:17.378Z,100727.59
2023-03-28T21:28:46.050Z,100732.19
2023-03-28T21:31:16.208Z,100726.66
2023-03-28T21:33:44.387Z,100732.47
2023-03-28T21:36:15.994Z,100725.97
2023-03-28T21:38:46.254Z,100734.66
2023-03-28T21:41:14.970Z,100734.00
2023-03-28T21:43:43.396Z,100728.47
2023-03-28T21:46:13.653Z,100734.31
2023-03-28T21:48:42.303Z,100742.66
2023-03-28T21:51:10.391Z,100742.56
2023-03-28T21:53:39.672Z,100750.19
2023-03-28T21:56:11.721Z,100761.44
2023-03-28T21:58:40.551Z,100754.22
2023-03-28T22:01:09.015Z,100747.34
2023-03-28T22:03:38.117Z,100767.97
2023-03-28T22:06:07.292Z,100769.84
2023-03-28T22:08:35.254Z,100778.22
2023-03-28T22:11:04.435Z,100782.38
2023-03-28T22:13:33.986Z,100779.34
2023-03-28T22:16:02.597Z,100746.22
2023-03-28T22:18:30.822Z,100758.84
2023-03-28T22:21:02.575Z,100790.28
2023-03-28T22:23:31.768Z,100781.44
2023-03-28T22:25:59.854Z,100790.69
2023-03-28T22:28:27.790Z,100796.09
2023-03-28T22:30:57.646Z,100805.38
2023-03-28T22:33:25.917Z,100799.69
2023-03-28T22:35:54.291Z,100804.66
2023-03-28T22:38:22.315Z,100808.53
2023-03-28T22:40:50.472Z,100798.31
2023-03-28T22:43:18.452Z,100820.31
2023-03-28T22:45:46.478Z,100824.53
2023-03-28T22:48:15.839Z,100816.59
2023-03-28T22:50:45.379Z,100811.25
2023-03-28T22:53:14.349Z,100804.47
2023-03-28T22:55:46.400Z,100817.00
2023-03-28T22:58:14.434Z,100817.63
2023-03-28T23:00:43.858Z,100826.28
2023-03-28T23:03:12.388Z,100828.59
2023-03-28T23:05:42.169Z,100817.66
2023-03-28T23:08:11.949Z,100828.97
2023-03-28T23:10:40.585Z,100828.00
2023-03-28T23:13:09.261Z,100815.13
2023-03-28T23:15:37.247Z,100825.91
2023-03-28T23:18:05.848Z,100829.75
2023-03-28T23:20:33.787Z,100835.03
2023-03-28T23:23:03.077Z,100833.25
2023-03-28T23:25:31.016Z,100834.19
2023-03-28T23:27:58.960Z,100829.47
2023-03-28T23:30:27.108Z,100829.84
2023-03-28T23:32:56.055Z,100823.66
2023-03-28T23:35:23.991Z,100825.91
2023-03-28T23:37:54.129Z,100829.50
2023-03-28T23:40:24.435Z,100838.03
2023-03-28T23:42:52.369Z,100824.72
2023-03-28T23:45:20.391Z,100842.63
2023-03-28T23:47:48.411Z,100836.72
2023-03-28T23:50:16.611Z,100841.34
2023-03-28T23:52:44.577Z,100830.88
2023-03-28T23:55:12.534Z,100831.53
2023-03-28T23:57:41.996Z,100829.94
